Time;durP1;ratioP1;P1;durP2;ratioP2;P2;SDS_P1;SDS_P2;PMS_P1;PMS_P2;Temp;Humidity;BMP_temperature;BMP_pressure;BME280_temperature;BME280_humidity;BME280_pressure;Samples;Min_cycle;Max_cycle;Signal;HPM_P1;HPM_P2
2024/04/03 00:02:08;;;;;;;0.13;0.13;;;;;;;-139.19;100.00;56970.53;5074314;28;20032;-64
2024/04/03 00:04:35;;;;;;;0.00;0.00;;;;;;;-139.19;100.00;56970.53;5056656;28;20091;-64
2024/04/03 00:07:01;;;;;;;0.00;0.00;;;;;;;-139.19;100.00;56970.53;5057009;28;20025;-64
2024/04/03 00:09:26;;;;;;;0.00;0.00;;;;;;;-139.19;100.00;56970.53;5064878;28;20032;-64
2024/04/03 00:11:52;;;;;;;0.00;0.00;;;;;;;-139.19;100.00;56970.53;5056471;28;20354;-65
2024/04/03 00:14:17;;;;;;;0.00;0.00;;;;;;;-139.19;100.00;56970.53;5056610;28;20380;-65
2024/04/03 00:16:42;;;;;;;0.00;0.00;;;;;;;-139.19;100.00;56970.53;5057528;28;21417;-65
2024/04/03 00:19:08;;;;;;;0.00;0.00;;;;;;;-139.19;100.00;56970.53;5056466;28;20413;-65
2024/04/03 00:21:33;;;;;;;0.00;0.00;;;;;;;-139.19;100.00;56970.53;5074543;28;20060;-65
2024/04/03 00:23:58;;;;;;;0.10;0.10;;;;;;;-139.19;100.00;56970.53;5075766;28;20059;-65
2024/04/03 00:26:24;;;;;;;0.00;0.00;;;;;;;-139.19;100.00;56970.53;5075262;28;20111;-65
2024/04/03 00:28:49;;;;;;;0.00;0.00;;;;;;;-139.19;100.00;56970.53;5056535;28;20056;-65
2024/04/03 00:31:15;;;;;;;0.10;0.10;;;;;;;-139.19;100.00;56970.53;5056408;28;20071;-65
2024/04/03 00:33:40;;;;;;;0.00;0.00;;;;;;;-139.19;100.00;56970.53;5056168;28;20499;-65
2024/04/03 00:36:06;;;;;;;0.00;0.00;;;;;;;-139.19;100.00;56970.53;5056165;28;20490;-65
2024/04/03 00:38:31;;;;;;;0.03;0.03;;;;;;;-139.19;100.00;56970.53;5072934;28;20111;-65
2024/04/03 00:41:00;;;;;;;0.03;0.03;;;;;;;-139.19;100.00;56970.53;5075208;28;20048;-65
2024/04/03 00:43:27;;;;;;;0.00;0.00;;;;;;;-139.19;100.00;56970.53;5075758;28;20036;-65
2024/04/03 00:45:54;;;;;;;0.20;0.20;;;;;;;-139.19;100.00;56970.53;5073740;28;20036;-65
2024/04/03 00:48:21;;;;;;;0.13;0.13;;;;;;;-139.19;100.00;56970.53;5058234;28;20048;-65
2024/04/03 00:50:47;;;;;;;2.10;0.35;;;;;;;-139.19;100.00;56970.53;5055830;28;20037;-65
2024/04/03 00:53:13;;;;;;;0.30;0.30;;;;;;;-139.19;100.00;56970.53;5055757;28;20430;-65
2024/04/03 00:55:40;;;;;;;0.93;0.38;;;;;;;-139.19;100.00;56970.53;5056013;28;20111;-65
2024/04/03 00:58:05;;;;;;;0.00;0.00;;;;;;;-139.19;100.00;56970.53;5071719;28;20112;-65
2024/04/03 01:00:32;;;;;;;0.00;0.00;;;;;;;-139.19;100.00;56970.53;5062713;28;20465;-65
2024/04/03 01:02:58;;;;;;;0.10;0.10;;;;;;;-139.19;100.00;56970.53;5054517;28;20037;-65
2024/04/03 01:05:23;;;;;;;0.15;0.15;;;;;;;-139.19;100.00;56970.53;5054424;28;20472;-65
2024/04/03 01:07:49;;;;;;;0.10;0.10;;;;;;;-139.19;100.00;56970.53;5068643;28;20028;-65
2024/04/03 01:10:14;;;;;;;0.00;0.00;;;;;;;-139.19;100.00;56970.53;5065498;28;20032;-65
2024/04/03 01:12:40;;;;;;;0.00;0.00;;;;;;;-139.19;100.00;56970.53;5054206;28;20128;-65
2024/04/03 01:15:06;;;;;;;0.22;0.20;;;;;;;-139.19;100.00;56970.53;5061161;28;20028;-65
2024/04/03 01:17:31;;;;;;;0.10;0.10;;;;;;;-139.19;100.00;56970.53;5063816;28;20028;-64
2024/04/03 01:19:56;;;;;;;0.43;0.32;;;;;;;-139.19;100.00;56970.53;5061411;28;20024;-64
2024/04/03 01:22:22;;;;;;;0.00;0.00;;;;;;;-139.19;100.00;56970.53;5070470;28;20025;-64
2024/04/03 01:24:47;;;;;;;0.65;0.30;;;;;;;-139.19;100.00;56970.53;5055701;28;20067;-64
2024/04/03 01:27:12;;;;;;;0.00;0.00;;;;;;;-139.19;100.00;56970.53;5065156;28;20024;-64
2024/04/03 01:29:38;;;;;;;0.35;0.10;;;;;;;-139.19;100.00;56970.53;5072660;28;20033;-64
2024/04/03 01:32:05;;;;;;;0.03;0.03;;;;;;;-139.19;100.00;56970.53;5068566;28;20530;-64
2024/04/03 01:34:30;;;;;;;0.00;0.00;;;;;;;-139.19;100.00;56970.53;5070371;28;20032;-64
2024/04/03 01:36:56;;;;;;;0.05;0.05;;;;;;;-139.19;100.00;56970.53;5060499;28;20044;-64
2024/04/03 01:39:21;;;;;;;0.00;0.00;;;;;;;-139.19;100.00;56970.53;5053947;28;20024;-64
2024/04/03 01:41:47;;;;;;;0.00;0.00;;;;;;;-139.19;100.00;56970.53;5056270;28;20033;-64
2024/04/03 01:44:12;;;;;;;0.00;0.00;;;;;;;-139.19;100.00;56970.53;5073065;28;20032;-64
2024/04/03 01:46:37;;;;;;;0.00;0.00;;;;;;;-139.19;100.00;56970.53;5058750;28;20037;-64
2024/04/03 01:49:03;;;;;;;0.00;0.00;;;;;;;-139.19;100.00;56970.53;5055298;28;20029;-64
2024/04/03 01:51:28;;;;;;;0.00;0.00;;;;;;;-139.19;100.00;56970.53;5060497;28;20492;-64
2024/04/03 01:53:54;;;;;;;0.00;0.00;;;;;;;-139.19;100.00;56970.53;5061327;28;20391;-63
2024/04/03 01:56:19;;;;;;;0.00;0.00;;;;;;;-139.19;100.00;56970.53;5061756;28;20040;-64
2024/04/03 01:58:44;;;;;;;0.20;0.20;;;;;;;-139.19;100.00;56970.53;5061486;28;20029;-64
2024/04/03 02:01:10;;;;;;;0.10;0.10;;;;;;;-139.19;100.00;56970.53;5017709;28;1228950;-64
2024/04/03 02:03:35;;;;;;;0.00;0.00;;;;;;;-139.19;100.00;56970.53;5047744;28;20029;-64
2024/04/03 02:06:00;;;;;;;4.82;0.60;;;;;;;-139.19;100.00;56970.53;5055376;28;20056;-64
2024/04/03 02:08:27;;;;;;;0.00;0.00;;;;;;;-139.19;100.00;56970.53;5070813;28;20028;-64
2024/04/03 02:10:53;;;;;;;0.10;0.10;;;;;;;-139.19;100.00;56970.53;5053466;28;20021;-64
2024/04/03 02:13:18;;;;;;;0.00;0.00;;;;;;;-139.19;100.00;56970.53;5062296;28;20025;-64
2024/04/03 02:15:51;;;;;;;0.20;0.20;;;;;;;-139.19;100.00;56970.53;5065164;28;20111;-64
2024/04/03 02:18:17;;;;;;;0.00;0.00;;;;;;;-139.19;100.00;56970.53;5074106;28;20460;-64
2024/04/03 02:20:42;;;;;;;0.00;0.00;;;;;;;-139.19;100.00;56970.53;5054833;28;20083;-64
2024/04/03 02:23:07;;;;;;;0.00;0.00;;;;;;;-139.19;100.00;56970.53;5054162;28;20086;-64
2024/04/03 02:25:33;;;;;;;4.70;0.47;;;;;;;-139.19;100.00;56970.53;5062316;28;20035;-64
2024/04/03 02:27:58;;;;;;;0.10;0.10;;;;;;;-139.19;100.00;56970.53;5069987;28;20501;-64
2024/04/03 02:30:23;;;;;;;0.00;0.00;;;;;;;-139.19;100.00;56970.53;5059229;28;20089;-64
2024/04/03 02:32:49;;;;;;;0.00;0.00;;;;;;;-139.19;100.00;56970.53;5067095;28;20393;-64
2024/04/03 02:35:14;;;;;;;0.00;0.00;;;;;;;-139.19;100.00;56970.53;5056994;28;20359;-64
2024/04/03 02:37:39;;;;;;;0.00;0.00;;;;;;;-139.19;100.00;56970.53;5068502;28;20032;-64
2024/04/03 02:40:05;;;;;;;0.08;0.08;;;;;;;-139.19;100.00;56970.53;5055153;28;20020;-64
2024/04/03 02:42:31;;;;;;;0.10;0.10;;;;;;;-139.19;100.00;56970.53;5066384;28;20055;-64
2024/04/03 02:44:56;;;;;;;0.00;0.00;;;;;;;-139.19;100.00;56970.53;5065961;28;20584;-64
2024/04/03 02:47:22;;;;;;;0.00;0.00;;;;;;;-139.19;100.00;56970.53;5054800;28;20111;-64
2024/04/03 02:49:47;;;;;;;0.15;0.15;;;;;;;-139.19;100.00;56970.53;5053915;28;20024;-63
2024/04/03 02:52:13;;;;;;;0.10;0.10;;;;;;;-139.19;100.00;56970.53;5053759;28;20366;-63
2024/04/03 02:54:38;;;;;;;0.00;0.00;;;;;;;-139.19;100.00;56970.53;5061908;28;20032;-64
2024/04/03 02:57:04;;;;;;;0.08;0.08;;;;;;;-139.19;100.00;56970.53;5067721;28;20116;-64
2024/04/03 02:59:29;;;;;;;0.10;0.10;;;;;;;-139.19;100.00;56970.53;5038547;28;20029;-64
2024/04/03 03:01:54;;;;;;;0.10;0.10;;;;;;;-139.19;100.00;56970.53;5072823;28;20047;-64
2024/04/03 03:04:24;;;;;;;0.55;0.38;;;;;;;-139.19;100.00;56970.53;5071410;28;20032;-64
2024/04/03 03:06:49;;;;;;;0.15;0.15;;;;;;;-139.19;100.00;56970.53;5054195;28;20035;-64
2024/04/03 03:09:20;;;;;;;0.10;0.10;;;;;;;-139.19;100.00;56970.53;5053365;28;20099;-64
2024/04/03 03:11:45;;;;;;;0.05;0.05;;;;;;;-139.19;100.00;56970.53;5053503;28;20473;-64
2024/04/03 03:14:10;;;;;;;0.50;0.40;;;;;;;-139.19;100.00;56970.53;5057519;28;20035;-63
2024/04/03 03:16:36;;;;;;;0.00;0.00;;;;;;;-139.19;100.00;56970.53;5057049;28;20047;-64
2024/04/03 03:19:01;;;;;;;0.00;0.00;;;;;;;-139.19;100.00;56970.53;5053253;28;20032;-64
2024/04/03 03:21:26;;;;;;;0.00;0.00;;;;;;;-139.19;100.00;56970.53;5065342;28;20385;-63
2024/04/03 03:23:52;;;;;;;0.40;0.40;;;;;;;-139.19;100.00;56970.53;5066285;28;20427;-64
2024/04/03 03:26:17;;;;;;;0.40;0.40;;;;;;;-139.19;100.00;56970.53;5070635;28;20029;-64
2024/04/03 03:28:42;;;;;;;0.10;0.10;;;;;;;-139.19;100.00;56970.53;5072594;28;20433;-64
2024/04/03 03:31:08;;;;;;;0.08;0.08;;;;;;;-139.19;100.00;56970.53;5059276;28;20040;-64
2024/04/03 03:33:35;;;;;;;0.00;0.00;;;;;;;-139.19;100.00;56970.53;5065765;28;20056;-64
2024/04/03 03:36:00;;;;;;;0.88;0.17;;;;;;;-139.19;100.00;56970.53;5067418;28;20445;-64
2024/04/03 03:38:26;;;;;;;0.57;0.30;;;;;;;-139.19;100.00;56970.53;5072459;28;20032;-64
2024/04/03 03:40:51;;;;;;;0.00;0.00;;;;;;;-139.19;100.00;56970.53;5063460;28;20041;-64
2024/04/03 03:43:17;;;;;;;0.00;0.00;;;;;;;-139.19;100.00;56970.53;5066889;28;20480;-64
2024/04/03 03:45:47;;;;;;;0.00;0.00;;;;;;;-139.19;100.00;56970.53;5052881;28;20036;-64
2024/04/03 03:48:14;;;;;;;0.20;0.20;;;;;;;-139.19;100.00;56970.53;5053209;28;20154;-64
2024/04/03 03:53:25;;;;;;;2.72;0.55;;;;;;;-139.19;100.00;56970.53;5046564;28;20098;-63
2024/04/03 03:55:51;;;;;;;0.63;0.15;;;;;;;-139.19;100.00;56970.53;5069118;28;20029;-64
2024/04/03 03:58:17;;;;;;;0.80;0.60;;;;;;;-139.19;100.00;56970.53;5064319;28;20024;-63
2024/04/03 04:00:42;;;;;;;0.00;0.00;;;;;;;-139.19;100.00;56970.53;5070777;28;20108;-63
2024/04/03 04:03:07;;;;;;;0.00;0.00;;;;;;;-139.19;100.00;56970.53;5071842;28;20115;-64
2024/04/03 04:05:34;;;;;;;0.00;0.00;;;;;;;-139.19;100.00;56970.53;5068022;28;20115;-63
2024/04/03 04:07:59;;;;;;;0.45;0.25;;;;;;;-139.19;100.00;56970.53;5068814;28;20028;-64
2024/04/03 04:10:24;;;;;;;0.00;0.00;;;;;;;-139.19;100.00;56970.53;5064156;28;20033;-63
2024/04/03 04:12:50;;;;;;;0.00;0.00;;;;;;;-139.19;100.00;56970.53;5071713;28;20032;-63
2024/04/03 04:15:15;;;;;;;0.00;0.00;;;;;;;-139.19;100.00;56970.53;5072390;28;20025;-64
2024/04/03 04:17:41;;;;;;;0.00;0.00;;;;;;;-139.19;100.00;56970.53;5052637;28;20028;-64
2024/04/03 04:20:07;;;;;;;0.00;0.00;;;;;;;-139.19;100.00;56970.53;5060543;28;20021;-64
2024/04/03 04:22:34;;;;;;;0.00;0.00;;;;;;;-139.19;100.00;56970.53;5070727;28;20025;-64
2024/04/03 04:25:01;;;;;;;2.20;0.30;;;;;;;-139.19;100.00;56970.53;5047380;28;20025;-64
2024/04/03 04:27:26;;;;;;;0.00;0.00;;;;;;;-139.19;100.00;56970.53;5037546;28;20033;-64
2024/04/03 04:29:51;;;;;;;0.00;0.00;;;;;;;-139.19;100.00;56970.53;5051108;28;20079;-64
2024/04/03 04:32:17;;;;;;;0.00;0.00;;;;;;;-139.19;100.00;56970.53;5053423;28;20100;-64
2024/04/03 04:34:42;;;;;;;0.10;0.10;;;;;;;-139.19;100.00;56970.53;5054118;28;20040;-64
2024/04/03 04:37:08;;;;;;;0.00;0.00;;;;;;;-139.19;100.00;56970.53;5061664;28;20039;-64
2024/04/03 04:39:34;;;;;;;0.00;0.00;;;;;;;-139.19;100.00;56970.53;5067189;28;20465;-64
2024/04/03 04:42:00;;;;;;;0.00;0.00;;;;;;;-139.19;100.00;56970.53;5076141;28;20488;-62
2024/04/03 04:44:25;;;;;;;0.00;0.00;;;;;;;-139.19;100.00;56970.53;5076360;28;20032;-62
2024/04/03 04:46:54;;;;;;;0.00;0.00;;;;;;;-139.19;100.00;56970.53;5076216;28;20403;-63
2024/04/03 04:49:21;;;;;;;0.00;0.00;;;;;;;-139.19;100.00;56970.53;5076306;28;20098;-64
2024/04/03 04:51:47;;;;;;;0.10;0.10;;;;;;;-139.19;100.00;56970.53;5075890;28;20021;-64
2024/04/03 04:54:15;;;;;;;0.10;0.10;;;;;;;-139.19;100.00;56970.53;5076188;28;20506;-64
2024/04/03 04:56:41;;;;;;;0.00;0.00;;;;;;;-139.19;100.00;56970.53;5076172;28;20040;-64
2024/04/03 04:59:08;;;;;;;0.00;0.00;;;;;;;-139.19;100.00;56970.53;5076131;28;20031;-64
2024/04/03 05:01:33;;;;;;;0.20;0.20;;;;;;;-139.19;100.00;56970.53;5075634;28;20049;-64
2024/04/03 05:04:02;;;;;;;0.00;0.00;;;;;;;-139.19;100.00;56970.53;5075796;28;20039;-64
2024/04/03 05:06:28;;;;;;;0.00;0.00;;;;;;;-139.19;100.00;56970.53;5075642;28;20357;-64
2024/04/03 05:08:53;;;;;;;4.38;1.27;;;;;;;-139.19;100.00;56970.53;5075894;28;20023;-64
2024/04/03 05:11:19;;;;;;;0.05;0.05;;;;;;;-139.19;100.00;56970.53;5075677;28;20033;-64
2024/04/03 05:13:45;;;;;;;0.00;0.00;;;;;;;-139.19;100.00;56970.53;5075611;28;20381;-64
2024/04/03 05:16:12;;;;;;;0.00;0.00;;;;;;;-139.19;100.00;56970.53;5075484;28;20117;-64
2024/04/03 05:18:38;;;;;;;0.20;0.20;;;;;;;-139.19;100.00;56970.53;5075764;28;20437;-64
2024/04/03 05:21:04;;;;;;;0.08;0.08;;;;;;;-139.19;100.00;56970.53;5075470;28;20047;-64
2024/04/03 05:23:30;;;;;;;0.45;0.22;;;;;;;-139.19;100.00;56970.53;5075624;28;20032;-63
2024/04/03 05:26:01;;;;;;;0.00;0.00;;;;;;;-139.19;100.00;56970.53;5075643;28;20027;-64
2024/04/03 05:28:28;;;;;;;0.00;0.00;;;;;;;-139.19;100.00;56970.53;5075321;28;20027;-64
2024/04/03 05:30:54;;;;;;;0.00;0.00;;;;;;;-139.19;100.00;56970.53;5075465;28;20517;-64
2024/04/03 05:33:20;;;;;;;0.05;0.05;;;;;;;-139.19;100.00;56970.53;5075289;28;20028;-64
2024/04/03 05:35:58;;;;;;;0.47;0.10;;;;;;;-139.19;100.00;56970.53;5075157;28;20032;-64
2024/04/03 05:38:24;;;;;;;0.00;0.00;;;;;;;-139.19;100.00;56970.53;5075143;28;20029;-64
2024/04/03 05:40:51;;;;;;;0.00;0.00;;;;;;;-139.19;100.00;56970.53;5075027;28;20027;-64
2024/04/03 05:43:17;;;;;;;0.00;0.00;;;;;;;-139.19;100.00;56970.53;5075034;28;20504;-64
2024/04/03 05:45:43;;;;;;;0.10;0.10;;;;;;;-139.19;100.00;56970.53;5074299;28;20024;-64
2024/04/03 05:48:08;;;;;;;0.00;0.00;;;;;;;-139.19;100.00;56970.53;5074939;28;20534;-64
2024/04/03 05:50:34;;;;;;;0.10;0.10;;;;;;;-139.19;100.00;56970.53;5074794;28;20017;-63
2024/04/03 05:53:00;;;;;;;0.00;0.00;;;;;;;-139.19;100.00;56970.53;5074849;28;20032;-64
2024/04/03 05:55:25;;;;;;;0.00;0.00;;;;;;;-139.19;100.00;56970.53;5075054;28;20031;-64
2024/04/03 05:57:50;;;;;;;0.10;0.10;;;;;;;-139.19;100.00;56970.53;5074787;28;20391;-63
2024/04/03 06:00:16;;;;;;;0.00;0.00;;;;;;;-139.19;100.00;56970.53;5074713;28;20494;-63
2024/04/03 06:02:41;;;;;;;0.00;0.00;;;;;;;-139.19;100.00;56970.53;5074500;28;20048;-63
2024/04/03 06:05:07;;;;;;;0.00;0.00;;;;;;;-139.19;100.00;56970.53;5074604;28;20071;-64
2024/04/03 06:07:34;;;;;;;0.00;0.00;;;;;;;-139.19;100.00;56970.53;5074494;28;20028;-64
2024/04/03 06:10:00;;;;;;;0.10;0.10;;;;;;;-139.19;100.00;56970.53;5074757;28;20103;-63
2024/04/03 06:12:26;;;;;;;0.00;0.00;;;;;;;-139.19;100.00;56970.53;5074634;28;20020;-63
2024/04/03 06:14:51;;;;;;;0.22;0.20;;;;;;;-139.19;100.00;56970.53;5074514;28;20036;-63
2024/04/03 06:17:17;;;;;;;0.00;0.00;;;;;;;-139.19;100.00;56970.53;5074577;28;20051;-63
2024/04/03 06:19:42;;;;;;;0.03;0.03;;;;;;;-139.19;100.00;56970.53;5074259;28;20082;-63
2024/04/03 06:22:07;;;;;;;0.57;0.25;;;;;;;-139.19;100.00;56970.53;5074223;28;20447;-63
2024/04/03 06:24:33;;;;;;;0.20;0.20;;;;;;;-139.19;100.00;56970.53;5074453;28;20095;-64
2024/04/03 06:26:58;;;;;;;0.10;0.10;;;;;;;-139.19;100.00;56970.53;5074150;28;20028;-63
2024/04/03 06:29:23;;;;;;;0.00;0.00;;;;;;;-139.19;100.00;56970.53;5074362;28;20159;-63
2024/04/03 06:31:50;;;;;;;0.55;0.55;;;;;;;-139.19;100.00;56970.53;5074019;28;20037;-64
2024/04/03 06:34:16;;;;;;;0.10;0.10;;;;;;;-139.19;100.00;56970.53;5073904;28;20020;-63
2024/04/03 06:36:41;;;;;;;0.00;0.00;;;;;;;-139.19;100.00;56970.53;5073995;28;20038;-63
2024/04/03 06:39:07;;;;;;;0.03;0.03;;;;;;;-139.19;100.00;56970.53;5073937;28;20112;-64
2024/04/03 06:41:33;;;;;;;0.00;0.00;;;;;;;-139.19;100.00;56970.53;5073775;28;20021;-63
2024/04/03 06:43:58;;;;;;;0.00;0.00;;;;;;;-139.19;100.00;56970.53;5073895;28;20020;-63
2024/04/03 06:46:24;;;;;;;0.05;0.05;;;;;;;-139.19;100.00;56970.53;5074028;28;20128;-63
2024/04/03 06:48:49;;;;;;;0.20;0.20;;;;;;;-139.19;100.00;56970.53;5074012;28;20052;-64
2024/04/03 06:51:15;;;;;;;0.15;0.15;;;;;;;-139.19;100.00;56970.53;5073931;28;20456;-64
2024/04/03 06:53:40;;;;;;;0.00;0.00;;;;;;;-139.19;100.00;56970.53;5073720;28;20033;-64
2024/04/03 06:56:05;;;;;;;0.10;0.10;;;;;;;-139.19;100.00;56970.53;5073703;28;20082;-64
2024/04/03 06:58:39;;;;;;;0.00;0.00;;;;;;;-139.19;100.00;56970.53;5073249;28;20024;-64
2024/04/03 07:01:05;;;;;;;0.10;0.10;;;;;;;-139.19;100.00;56970.53;5073635;28;20020;-64
2024/04/03 07:03:30;;;;;;;0.00;0.00;;;;;;;-139.19;100.00;56970.53;5073606;28;20512;-64
2024/04/03 07:05:56;;;;;;;0.10;0.10;;;;;;;-139.19;100.00;56970.53;5073487;28;20032;-63
2024/04/03 07:08:22;;;;;;;0.00;0.00;;;;;;;-139.19;100.00;56970.53;5073514;28;20495;-64
2024/04/03 07:10:47;;;;;;;0.00;0.00;;;;;;;-139.19;100.00;56970.53;5073706;28;20036;-64
2024/04/03 07:13:12;;;;;;;0.00;0.00;;;;;;;-139.19;100.00;56970.53;5073312;28;20020;-64
2024/04/03 07:15:38;;;;;;;0.00;0.00;;;;;;;-139.19;100.00;56970.53;5073498;28;20036;-64
2024/04/03 07:18:04;;;;;;;0.00;0.00;;;;;;;-139.19;100.00;56970.53;5073376;28;20028;-64
2024/04/03 07:20:31;;;;;;;0.00;0.00;;;;;;;-139.19;100.00;56970.53;5073607;28;20029;-63
2024/04/03 07:22:58;;;;;;;0.00;0.00;;;;;;;-139.19;100.00;56970.53;5073327;28;20028;-63
2024/04/03 07:25:24;;;;;;;0.10;0.10;;;;;;;-139.19;100.00;56970.53;5073259;28;20016;-64
2024/04/03 07:27:50;;;;;;;5.93;0.38;;;;;;;-139.19;100.00;56970.53;5073158;28;20035;-64
2024/04/03 07:30:16;;;;;;;0.00;0.00;;;;;;;-139.19;100.00;56970.53;5073170;28;20043;-64
2024/04/03 07:32:41;;;;;;;0.20;0.20;;;;;;;-139.19;100.00;56970.53;5073082;28;20415;-64
2024/04/03 07:35:07;;;;;;;0.00;0.00;;;;;;;-139.19;100.00;56970.53;5073204;28;20361;-64
2024/04/03 07:37:40;;;;;;;0.28;0.28;;;;;;;-139.19;100.00;56970.53;5073439;28;20086;-64
2024/04/03 07:40:10;;;;;;;0.05;0.05;;;;;;;-139.19;100.00;56970.53;5073198;28;20384;-64
2024/04/03 07:42:38;;;;;;;0.00;0.00;;;;;;;-139.19;100.00;56970.53;5073088;28;20095;-64
2024/04/03 07:45:04;;;;;;;0.00;0.00;;;;;;;-139.19;100.00;56970.53;5073288;28;20468;-64
2024/04/03 07:47:34;;;;;;;0.10;0.10;;;;;;;-139.19;100.00;56970.53;5072983;28;20032;-64
2024/04/03 07:50:07;;;;;;;0.00;0.00;;;;;;;-139.19;100.00;56970.53;5073067;28;20029;-64
2024/04/03 07:52:37;;;;;;;0.00;0.00;;;;;;;-139.19;100.00;56970.53;5073176;28;20100;-65
2024/04/03 07:55:10;;;;;;;0.30;0.22;;;;;;;-139.19;100.00;56970.53;5072974;28;20032;-64
2024/04/03 07:57:36;;;;;;;0.15;0.13;;;;;;;-139.19;100.00;56970.53;5073000;28;20028;-64
2024/04/03 08:00:05;;;;;;;0.05;0.05;;;;;;;-139.19;100.00;56970.53;5073164;28;20561;-64
2024/04/03 08:02:40;;;;;;;0.28;0.28;;;;;;;-139.19;100.00;56970.53;5072783;28;20045;-64
2024/04/03 08:05:11;;;;;;;0.10;0.10;;;;;;;-139.19;100.00;56970.53;5073076;28;20523;-64
2024/04/03 08:07:36;;;;;;;0.00;0.00;;;;;;;-139.19;100.00;56970.53;5073117;28;20025;-64
2024/04/03 08:10:04;;;;;;;0.25;0.25;;;;;;;-139.19;100.00;56970.53;5074641;28;20383;-64
2024/04/03 08:12:30;;;;;;;0.00;0.00;;;;;;;-139.19;100.00;56970.53;5076435;28;20036;-63
2024/04/03 08:14:58;;;;;;;0.00;0.00;;;;;;;-139.19;100.00;56970.53;5076817;28;20024;-63
2024/04/03 08:17:24;;;;;;;0.00;0.00;;;;;;;-139.19;100.00;56970.53;5076892;28;20078;-64
2024/04/03 08:19:50;;;;;;;0.00;0.00;;;;;;;-139.19;100.00;56970.53;5076774;28;20499;-64
2024/04/03 08:22:16;;;;;;;0.10;0.10;;;;;;;-139.19;100.00;56970.53;5076561;28;20016;-64
2024/04/03 08:24:41;;;;;;;0.00;0.00;;;;;;;-139.19;100.00;56970.53;5076752;28;20058;-64
2024/04/03 08:27:07;;;;;;;3.42;0.30;;;;;;;-139.19;100.00;56970.53;5076842;28;20024;-63
2024/04/03 08:29:37;;;;;;;0.08;0.08;;;;;;;-139.19;100.00;56970.53;5076689;28;20020;-64
2024/04/03 08:32:02;;;;;;;0.00;0.00;;;;;;;-139.19;100.00;56970.53;5076259;28;20027;-64
2024/04/03 08:34:28;;;;;;;0.17;0.17;;;;;;;-139.19;100.00;56970.53;5076531;28;20036;-63
2024/04/03 08:36:53;;;;;;;0.00;0.00;;;;;;;-139.19;100.00;56970.53;5076236;28;20423;-64
2024/04/03 08:39:18;;;;;;;0.00;0.00;;;;;;;-139.19;100.00;56970.53;5076578;28;20021;-64
2024/04/03 08:41:44;;;;;;;0.43;0.32;;;;;;;-139.19;100.00;56970.53;5076498;28;20021;-63
2024/04/03 08:44:10;;;;;;;0.00;0.00;;;;;;;-139.19;100.00;56970.53;5076101;28;20035;-63
2024/04/03 08:46:37;;;;;;;0.00;0.00;;;;;;;-139.19;100.00;56970.53;5076374;28;20040;-63
2024/04/03 08:49:05;;;;;;;0.08;0.08;;;;;;;-139.19;100.00;56970.53;5076140;28;20024;-63
2024/04/03 08:51:32;;;;;;;0.10;0.10;;;;;;;-139.19;100.00;56970.53;5076264;28;20527;-64
2024/04/03 08:54:03;;;;;;;0.00;0.00;;;;;;;-139.19;100.00;56970.53;5076028;28;20480;-64
2024/04/03 08:56:29;;;;;;;0.10;0.10;;;;;;;-139.19;100.00;56970.53;5076228;28;20078;-64
2024/04/03 08:58:54;;;;;;;0.00;0.00;;;;;;;-139.19;100.00;56970.53;5075897;28;20388;-63
2024/04/03 09:01:19;;;;;;;0.10;0.10;;;;;;;-139.19;100.00;56970.53;5075750;28;20020;-63
2024/04/03 09:03:45;;;;;;;0.00;0.00;;;;;;;-139.19;100.00;56970.53;5075753;28;20051;-63
2024/04/03 09:06:11;;;;;;;0.00;0.00;;;;;;;-139.19;100.00;56970.53;5075986;28;20025;-63
2024/04/03 09:08:43;;;;;;;0.00;0.00;;;;;;;-139.19;100.00;56970.53;5076050;28;20032;-64
2024/04/03 09:11:10;;;;;;;0.00;0.00;;;;;;;-139.19;100.00;56970.53;5075862;28;20017;-64
2024/04/03 09:13:35;;;;;;;0.10;0.10;;;;;;;-139.19;100.00;56970.53;5075591;28;20077;-64
2024/04/03 09:16:01;;;;;;;0.00;0.00;;;;;;;-139.19;100.00;56970.53;5075587;28;20029;-64
2024/04/03 09:18:26;;;;;;;1.13;0.30;;;;;;;-139.19;100.00;56970.53;5075801;28;20032;-64
2024/04/03 09:20:52;;;;;;;0.00;0.00;;;;;;;-139.19;100.00;56970.53;5075336;28;20028;-63
2024/04/03 09:23:18;;;;;;;0.00;0.00;;;;;;;-139.19;100.00;56970.53;5075737;28;20591;-63
2024/04/03 09:25:44;;;;;;;0.10;0.10;;;;;;;-139.19;100.00;56970.53;5075453;28;20058;-63
2024/04/03 09:28:11;;;;;;;0.00;0.00;;;;;;;-139.19;100.00;56970.53;5075397;28;20062;-64
2024/04/03 09:30:45;;;;;;;0.00;0.00;;;;;;;-139.19;100.00;56970.53;5075606;28;20112;-64
2024/04/03 09:33:11;;;;;;;0.00;0.00;;;;;;;-139.19;100.00;56970.53;5075352;28;20415;-63
2024/04/03 09:35:42;;;;;;;0.00;0.00;;;;;;;-139.19;100.00;56970.53;5075283;28;20020;-63
2024/04/03 09:38:10;;;;;;;0.10;0.10;;;;;;;-139.19;100.00;56970.53;5075455;28;20384;-63
2024/04/03 09:40:37;;;;;;;0.00;0.00;;;;;;;-139.19;100.00;56970.53;5074998;28;20039;-63
2024/04/03 09:43:05;;;;;;;0.00;0.00;;;;;;;-139.19;100.00;56970.53;5075124;28;20425;-63
2024/04/03 09:45:32;;;;;;;0.00;0.00;;;;;;;-139.19;100.00;56970.53;5075313;28;20530;-63
2024/04/03 09:48:02;;;;;;;0.45;0.43;;;;;;;-139.19;100.00;56970.53;5074959;28;20029;-63
2024/04/03 09:50:42;;;;;;;0.00;0.00;;;;;;;-139.19;100.00;56970.53;5074898;28;20028;-63
2024/04/03 09:53:14;;;;;;;0.03;0.03;;;;;;;-139.19;100.00;56970.53;5075059;28;20484;-63
2024/04/03 09:55:40;;;;;;;;;;;;;;;-139.19;100.00;56970.53;5075265;28;20028;-63
2024/04/03 09:58:11;;;;;;;0.00;0.00;;;;;;;-139.19;100.00;56970.53;5074788;28;20022;-63
2024/04/03 10:00:37;;;;;;;0.10;0.10;;;;;;;-139.19;100.00;56970.53;5074954;28;20499;-63
2024/04/03 10:03:03;;;;;;;0.13;0.13;;;;;;;-139.19;100.00;56970.53;5074426;28;20037;-64
2024/04/03 10:05:34;;;;;;;0.00;0.00;;;;;;;-139.19;100.00;56970.53;5074477;28;20090;-63
2024/04/03 10:08:00;;;;;;;0.10;0.10;;;;;;;-139.19;100.00;56970.53;5074606;28;20024;-63
2024/04/03 10:10:28;;;;;;;1.92;0.73;;;;;;;-139.19;100.00;56970.53;5074453;28;20021;-63
2024/04/03 10:12:57;;;;;;;0.00;0.00;;;;;;;-139.19;100.00;56970.53;5074421;28;20035;-63
2024/04/03 10:15:23;;;;;;;0.00;0.00;;;;;;;-139.19;100.00;56970.53;5074423;28;20059;-64
2024/04/03 10:17:48;;;;;;;0.00;0.00;;;;;;;-139.19;100.00;56970.53;5074353;28;20068;-64
2024/04/03 10:20:35;;;;;;;0.00;0.00;;;;;;;-139.19;100.00;56970.53;5074554;28;20111;-63
2024/04/03 10:23:03;;;;;;;0.00;0.00;;;;;;;-139.19;100.00;56970.53;5074452;28;20362;-63
2024/04/03 10:25:30;;;;;;;0.00;0.00;;;;;;;-139.19;100.00;56970.53;5074268;28;20027;-64
2024/04/03 10:27:57;;;;;;;0.10;0.10;;;;;;;-139.19;100.00;56970.53;5074178;28;20025;-64
2024/04/03 10:30:23;;;;;;;0.10;0.10;;;;;;;-139.19;100.00;56970.53;5074358;28;20029;-64
2024/04/03 10:32:52;;;;;;;0.45;0.35;;;;;;;-139.19;100.00;56970.53;5073336;28;20381;-64
2024/04/03 10:35:18;;;;;;;0.00;0.00;;;;;;;-139.19;100.00;56970.53;5074303;28;20103;-63
2024/04/03 10:37:44;;;;;;;0.30;0.22;;;;;;;-139.19;100.00;56970.53;5073977;28;20183;-63
2024/04/03 10:40:10;;;;;;;0.10;0.10;;;;;;;-139.19;100.00;56970.53;5073896;28;20035;-63
2024/04/03 10:42:36;;;;;;;0.10;0.10;;;;;;;-139.19;100.00;56970.53;5073844;28;20024;-63
2024/04/03 10:45:02;;;;;;;0.00;0.00;;;;;;;-139.19;100.00;56970.53;5074128;28;20028;-63
2024/04/03 10:47:28;;;;;;;0.00;0.00;;;;;;;-139.19;100.00;56970.53;5073493;28;20037;-63
2024/04/03 10:49:54;;;;;;;0.00;0.00;;;;;;;-139.19;100.00;56970.53;5074052;28;20025;-63
2024/04/03 10:52:19;;;;;;;0.08;0.08;;;;;;;-139.19;100.00;56970.53;5073783;28;20107;-63
2024/04/03 10:54:45;;;;;;;0.05;0.05;;;;;;;-139.19;100.00;56970.53;5073949;28;20104;-63
2024/04/03 10:57:12;;;;;;;0.10;0.10;;;;;;;-139.19;100.00;56970.53;5073646;28;20033;-64
2024/04/03 10:59:37;;;;;;;0.20;0.20;;;;;;;-139.19;100.00;56970.53;5073607;28;20505;-64
2024/04/03 11:02:08;;;;;;;0.00;0.00;;;;;;;-139.19;100.00;56970.53;5073465;28;20076;-64
2024/04/03 11:04:34;;;;;;;0.00;0.00;;;;;;;-139.19;100.00;56970.53;5073473;28;20031;-63
2024/04/03 11:06:59;;;;;;;0.00;0.00;;;;;;;-139.19;100.00;56970.53;5073531;28;20463;-64
2024/04/03 11:09:26;;;;;;;0.20;0.20;;;;;;;-139.19;100.00;56970.53;5073669;28;20021;-63